sensor_id;sensor_type;location;lat;lon;timestamp;pressure;altitude;pressure_sealevel;temperature;humidity
59419;BME280;45224;50.904;6.038;2023-01-28T00:00:30;100948.75;;;1.61;97.94
59419;BME280;45224;50.904;6.038;2023-01-28T00:02:00;100944.34;;;1.74;98.42
59419;BME280;45224;50.904;6.038;2023-01-28T00:03:31;100947.94;;;1.77;97.41
59419;BME280;45224;50.904;6.038;2023-01-28T00:05:02;100943.31;;;1.70;98.11
59419;BME280;45224;50.904;6.038;2023-01-28T00:06:33;100957.88;;;1.73;98.13
59419;BME280;45224;50.904;6.038;2023-01-28T00:08:03;100952.63;;;1.70;98.65
59419;BME280;45224;50.904;6.038;2023-01-28T00:09:34;100958.69;;;1.72;97.97
59419;BME280;45224;50.904;6.038;2023-01-28T00:11:05;100953.28;;;1.82;98.21
59419;BME280;45224;50.904;6.038;2023-01-28T00:12:36;100951.84;;;1.87;97.93
59419;BME280;45224;50.904;6.038;2023-01-28T00:14:06;100945.78;;;1.69;97.44
59419;BME280;45224;50.904;6.038;2023-01-28T00:15:37;100945.28;;;1.76;97.77
59419;BME280;45224;50.904;6.038;2023-01-28T00:17:08;100949.63;;;1.77;97.88
59419;BME280;45224;50.904;6.038;2023-01-28T00:18:38;100942.56;;;1.73;97.63
59419;BME280;45224;50.904;6.038;2023-01-28T00:20:09;100946.13;;;1.75;97.69
59419;BME280;45224;50.904;6.038;2023-01-28T00:21:40;100949.09;;;1.68;98.18
59419;BME280;45224;50.904;6.038;2023-01-28T00:23:10;100940.69;;;1.69;98.84
59419;BME280;45224;50.904;6.038;2023-01-28T00:24:41;100950.56;;;1.79;98.05
59419;BME280;45224;50.904;6.038;2023-01-28T00:26:13;100948.81;;;1.78;98.60
59419;BME280;45224;50.904;6.038;2023-01-28T00:27:48;100943.41;;;1.88;98.47
59419;BME280;45224;50.904;6.038;2023-01-28T00:29:20;100946.13;;;1.91;98.51
59419;BME280;45224;50.904;6.038;2023-01-28T00:30:50;100944.19;;;1.87;98.40
59419;BME280;45224;50.904;6.038;2023-01-28T00:32:21;100933.13;;;1.87;98.19
59419;BME280;45224;50.904;6.038;2023-01-28T00:33:52;100931.94;;;1.96;98.49
59419;BME280;45224;50.904;6.038;2023-01-28T00:35:23;100929.88;;;1.89;97.66
59419;BME280;45224;50.904;6.038;2023-01-28T00:36:53;100932.88;;;1.82;98.75
59419;BME280;45224;50.904;6.038;2023-01-28T00:38:27;100927.94;;;1.85;99.10
59419;BME280;45224;50.904;6.038;2023-01-28T00:39:58;100928.06;;;1.55;99.57
59419;BME280;45224;50.904;6.038;2023-01-28T00:41:29;100924.88;;;1.59;99.73
59419;BME280;45224;50.904;6.038;2023-01-28T00:43:01;100929.44;;;1.65;99.47
59419;BME280;45224;50.904;6.038;2023-01-28T00:44:32;100925.22;;;1.66;99.61
59419;BME280;45224;50.904;6.038;2023-01-28T00:46:07;100930.13;;;1.62;99.13
59419;BME280;45224;50.904;6.038;2023-01-28T00:47:38;100925.81;;;1.61;100.00
59419;BME280;45224;50.904;6.038;2023-01-28T00:49:09;100926.28;;;1.54;99.90
59419;BME280;45224;50.904;6.038;2023-01-28T00:50:39;100926.38;;;1.56;100.00
59419;BME280;45224;50.904;6.038;2023-01-28T00:52:10;100931.72;;;1.60;100.00
59419;BME280;45224;50.904;6.038;2023-01-28T00:53:41;100930.66;;;1.72;99.87
59419;BME280;45224;50.904;6.038;2023-01-28T00:55:12;100929.22;;;1.77;99.06
59419;BME280;45224;50.904;6.038;2023-01-28T00:56:42;100928.78;;;1.69;99.27
59419;BME280;45224;50.904;6.038;2023-01-28T00:58:13;100931.91;;;1.63;99.37
59419;BME280;45224;50.904;6.038;2023-01-28T00:59:43;100928.94;;;1.56;99.19
59419;BME280;45224;50.904;6.038;2023-01-28T01:01:25;100926.28;;;1.54;98.93
59419;BME280;45224;50.904;6.038;2023-01-28T01:02:56;100930.06;;;1.61;99.76
59419;BME280;45224;50.904;6.038;2023-01-28T01:04:26;100932.38;;;1.73;99.29
59419;BME280;45224;50.904;6.038;2023-01-28T01:06:12;100925.53;;;1.72;98.93
59419;BME280;45224;50.904;6.038;2023-01-28T01:07:42;100924.03;;;1.75;99.23
59419;BME280;45224;50.904;6.038;2023-01-28T01:09:13;100935.56;;;1.69;99.07
59419;BME280;45224;50.904;6.038;2023-01-28T01:10:44;100931.16;;;1.81;98.94
59419;BME280;45224;50.904;6.038;2023-01-28T01:12:14;100928.53;;;1.64;98.55
59419;BME280;45224;50.904;6.038;2023-01-28T01:13:52;100930.00;;;1.76;99.13
59419;BME280;45224;50.904;6.038;2023-01-28T01:15:24;100927.16;;;1.70;99.23
59419;BME280;45224;50.904;6.038;2023-01-28T01:16:54;100931.75;;;1.77;99.10
59419;BME280;45224;50.904;6.038;2023-01-28T01:18:25;100935.56;;;1.69;98.88
59419;BME280;45224;50.904;6.038;2023-01-28T01:19:56;100932.00;;;1.65;99.46
59419;BME280;45224;50.904;6.038;2023-01-28T01:21:28;100936.28;;;1.66;99.09
59419;BME280;45224;50.904;6.038;2023-01-28T01:22:59;100937.34;;;1.70;99.43
59419;BME280;45224;50.904;6.038;2023-01-28T01:24:30;100936.84;;;1.60;99.07
59419;BME280;45224;50.904;6.038;2023-01-28T01:26:04;100943.00;;;1.49;99.65
59419;BME280;45224;50.904;6.038;2023-01-28T01:27:35;100946.69;;;1.54;99.98
59419;BME280;45224;50.904;6.038;2023-01-28T01:29:05;100944.44;;;1.44;100.00
59419;BME280;45224;50.904;6.038;2023-01-28T01:30:37;100944.34;;;1.42;100.00
59419;BME280;45224;50.904;6.038;2023-01-28T01:32:08;100937.41;;;1.40;100.00
59419;BME280;45224;50.904;6.038;2023-01-28T01:33:38;100938.69;;;1.48;100.00
59419;BME280;45224;50.904;6.038;2023-01-28T01:35:09;100938.53;;;1.45;100.00
59419;BME280;45224;50.904;6.038;2023-01-28T01:36:42;100943.00;;;1.49;100.00
59419;BME280;45224;50.904;6.038;2023-01-28T01:38:15;100945.44;;;1.62;100.00
59419;BME280;45224;50.904;6.038;2023-01-28T01:39:46;100945.22;;;1.74;100.00
59419;BME280;45224;50.904;6.038;2023-01-28T01:41:28;100939.72;;;1.67;99.77
59419;BME280;45224;50.904;6.038;2023-01-28T01:42:59;100940.84;;;1.72;99.72
59419;BME280;45224;50.904;6.038;2023-01-28T01:45:06;100947.03;;;1.60;100.00
59419;BME280;45224;50.904;6.038;2023-01-28T01:46:41;100942.88;;;1.62;100.00
59419;BME280;45224;50.904;6.038;2023-01-28T01:48:19;100946.06;;;1.58;100.00
59419;BME280;45224;50.904;6.038;2023-01-28T01:49:50;100949.06;;;1.51;100.00
59419;BME280;45224;50.904;6.038;2023-01-28T01:51:26;100945.50;;;1.33;100.00
59419;BME280;45224;50.904;6.038;2023-01-28T01:53:05;100942.84;;;1.46;100.00
59419;BME280;45224;50.904;6.038;2023-01-28T01:54:37;100940.16;;;1.59;100.00
59419;BME280;45224;50.904;6.038;2023-01-28T01:56:13;100943.72;;;1.46;100.00
59419;BME280;45224;50.904;6.038;2023-01-28T01:57:48;100948.72;;;1.60;100.00
59419;BME280;45224;50.904;6.038;2023-01-28T01:59:26;100947.19;;;1.63;100.00
59419;BME280;45224;50.904;6.038;2023-01-28T02:00:58;100947.94;;;1.46;100.00
59419;BME280;45224;50.904;6.038;2023-01-28T02:02:29;100948.47;;;1.40;100.00
59419;BME280;45224;50.904;6.038;2023-01-28T02:05:33;100940.25;;;1.30;100.00
59419;BME280;45224;50.904;6.038;2023-01-28T02:07:04;100941.22;;;1.17;100.00
59419;BME280;45224;50.904;6.038;2023-01-28T02:08:37;100936.56;;;1.24;100.00
59419;BME280;45224;50.904;6.038;2023-01-28T02:10:12;100954.72;;;1.31;100.00
59419;BME280;45224;50.904;6.038;2023-01-28T02:11:43;100937.34;;;1.23;100.00
59419;BME280;45224;50.904;6.038;2023-01-28T02:13:15;100943.56;;;1.28;100.00
59419;BME280;45224;50.904;6.038;2023-01-28T02:14:53;100941.03;;;1.28;100.00
59419;BME280;45224;50.904;6.038;2023-01-28T02:16:26;100939.72;;;1.20;100.00
59419;BME280;45224;50.904;6.038;2023-01-28T02:17:58;100951.22;;;1.28;100.00
59419;BME280;45224;50.904;6.038;2023-01-28T02:19:35;100936.09;;;1.32;100.00
59419;BME280;45224;50.904;6.038;2023-01-28T02:29:16;100952.63;;;1.23;100.00
59419;BME280;45224;50.904;6.038;2023-01-28T02:31:18;100950.00;;;1.22;100.00
59419;BME280;45224;50.904;6.038;2023-01-28T02:32:59;100947.44;;;1.22;100.00
59419;BME280;45224;50.904;6.038;2023-01-28T02:34:44;100952.16;;;1.31;100.00
59419;BME280;45224;50.904;6.038;2023-01-28T02:36:23;100945.69;;;1.36;100.00
59419;BME280;45224;50.904;6.038;2023-01-28T02:38:03;100950.88;;;1.37;100.00
59419;BME280;45224;50.904;6.038;2023-01-28T02:39:39;100950.63;;;1.33;100.00
59419;BME280;45224;50.904;6.038;2023-01-28T02:41:20;100950.63;;;1.33;100.00
59419;BME280;45224;50.904;6.038;2023-01-28T02:42:52;100954.63;;;1.44;100.00
59419;BME280;45224;50.904;6.038;2023-01-28T02:44:23;100954.81;;;1.47;100.00
59419;BME280;45224;50.904;6.038;2023-01-28T02:45:53;100951.00;;;1.55;100.00
59419;BME280;45224;50.904;6.038;2023-01-28T02:47:42;100955.59;;;1.46;100.00
59419;BME280;45224;50.904;6.038;2023-01-28T02:49:39;100952.75;;;1.56;100.00
59419;BME280;45224;50.904;6.038;2023-01-28T02:51:33;100954.84;;;1.63;100.00
59419;BME280;45224;50.904;6.038;2023-01-28T02:53:16;100954.25;;;1.53;100.00
59419;BME280;45224;50.904;6.038;2023-01-28T02:55:14;100951.28;;;1.45;100.00
59419;BME280;45224;50.904;6.038;2023-01-28T02:56:52;100944.44;;;1.44;100.00
59419;BME280;45224;50.904;6.038;2023-01-28T03:04:08;100964.56;;;1.71;100.00
59419;BME280;45224;50.904;6.038;2023-01-28T03:05:49;100967.75;;;1.67;99.23
59419;BME280;45224;50.904;6.038;2023-01-28T03:07:36;100963.66;;;1.54;100.00
59419;BME280;45224;50.904;6.038;2023-01-28T03:09:10;100965.97;;;1.49;99.41
59419;BME280;45224;50.904;6.038;2023-01-28T03:10:57;100971.66;;;1.45;100.00
59419;BME280;45224;50.904;6.038;2023-01-28T03:12:50;100972.78;;;1.65;100.00
59419;BME280;45224;50.904;6.038;2023-01-28T03:14:42;100970.94;;;1.62;99.56
59419;BME280;45224;50.904;6.038;2023-01-28T03:16:34;100971.78;;;1.63;99.89
59419;BME280;45224;50.904;6.038;2023-01-28T03:18:27;100970.09;;;1.47;99.93
59419;BME280;45224;50.904;6.038;2023-01-28T03:20:19;100968.25;;;1.44;99.75
59419;BME280;45224;50.904;6.038;2023-01-28T03:22:11;100973.94;;;1.55;99.79
59419;BME280;45224;50.904;6.038;2023-01-28T03:24:20;100973.94;;;1.55;99.72
59419;BME280;45224;50.904;6.038;2023-01-28T03:26:13;100975.59;;;1.70;99.30
59419;BME280;45224;50.904;6.038;2023-01-28T03:28:04;100975.91;;;1.76;98.99
59419;BME280;45224;50.904;6.038;2023-01-28T03:30:05;100976.22;;;1.51;99.00
59419;BME280;45224;50.904;6.038;2023-01-28T03:31:58;100974.38;;;1.48;98.79
59419;BME280;45224;50.904;6.038;2023-01-28T03:33:48;100976.59;;;1.42;99.35
59419;BME280;45224;50.904;6.038;2023-01-28T03:35:40;100965.53;;;1.41;98.42
59419;BME280;45224;50.904;6.038;2023-01-28T03:37:29;100978.19;;;1.40;97.99
59419;BME280;45224;50.904;6.038;2023-01-28T03:39:22;100978.34;;;1.43;98.06
59419;BME280;45224;50.904;6.038;2023-01-28T03:40:55;100974.63;;;1.53;98.37
59419;BME280;45224;50.904;6.038;2023-01-28T03:42:26;100978.50;;;1.61;97.84
59419;BME280;45224;50.904;6.038;2023-01-28T03:44:06;100990.13;;;1.26;97.09
59419;BME280;45224;50.904;6.038;2023-01-28T03:45:56;100985.22;;;0.99;97.23
59419;BME280;45224;50.904;6.038;2023-01-28T03:47:28;100990.31;;;1.14;97.76
59419;BME280;45224;50.904;6.038;2023-01-28T03:49:00;100979.94;;;1.11;97.28
59419;BME280;45224;50.904;6.038;2023-01-28T03:50:30;100974.00;;;1.11;96.90
59419;BME280;45224;50.904;6.038;2023-01-28T03:52:04;100980.31;;;0.87;97.83
59419;BME280;45224;50.904;6.038;2023-01-28T03:53:34;100977.69;;;0.86;97.46
59419;BME280;45224;50.904;6.038;2023-01-28T03:55:05;100984.44;;;1.00;97.40
59419;BME280;45224;50.904;6.038;2023-01-28T03:56:43;100983.81;;;1.04;96.71
59419;BME280;45224;50.904;6.038;2023-01-28T03:58:16;100989.63;;;1.02;96.89
59419;BME280;45224;50.904;6.038;2023-01-28T03:59:49;100986.28;;;1.03;96.73
59419;BME280;45224;50.904;6.038;2023-01-28T04:01:20;100991.63;;;0.93;97.07
59419;BME280;45224;50.904;6.038;2023-01-28T04:02:51;100997.16;;;0.85;96.78
59419;BME280;45224;50.904;6.038;2023-01-28T04:04:24;100997.97;;;0.99;97.27
59419;BME280;45224;50.904;6.038;2023-01-28T04:05:58;100993.81;;;0.86;96.42
59419;BME280;45224;50.904;6.038;2023-01-28T04:07:32;100996.00;;;0.80;97.15
59419;BME280;45224;50.904;6.038;2023-01-28T04:09:23;100998.81;;;0.85;96.97
59419;BME280;45224;50.904;6.038;2023-01-28T04:11:01;100994.19;;;0.93;97.29
59419;BME280;45224;50.904;6.038;2023-01-28T04:12:45;101001.38;;;1.00;97.17
59419;BME280;45224;50.904;6.038;2023-01-28T04:14:19;100998.84;;;1.00;96.78
59419;BME280;45224;50.904;6.038;2023-01-28T04:15:56;100994.19;;;1.07;96.58
59419;BME280;45224;50.904;6.038;2023-01-28T04:17:27;101003.50;;;1.07;96.27
59419;BME280;45224;50.904;6.038;2023-01-28T04:19:00;100997.97;;;0.99;96.51
59419;BME280;45224;50.904;6.038;2023-01-28T04:20:31;100997.00;;;1.12;96.33
59419;BME280;45224;50.904;6.038;2023-01-28T04:22:05;101000.69;;;1.02;95.88
59419;BME280;45224;50.904;6.038;2023-01-28T04:23:37;101003.16;;;0.86;96.96
59419;BME280;45224;50.904;6.038;2023-01-28T04:25:08;101005.59;;;0.99;96.57
59419;BME280;45224;50.904;6.038;2023-01-28T04:26:39;101001.13;;;1.10;95.86
59419;BME280;45224;50.904;6.038;2023-01-28T04:28:10;101000.41;;;0.98;96.18
59419;BME280;45224;50.904;6.038;2023-01-28T04:29:40;101004.66;;;0.97;95.73
59419;BME280;45224;50.904;6.038;2023-01-28T04:31:28;101007.88;;;1.09;95.62
59419;BME280;45224;50.904;6.038;2023-01-28T04:33:18;100999.97;;;1.05;95.53
59419;BME280;45224;50.904;6.038;2023-01-28T04:35:03;101009.19;;;1.03;95.61
59419;BME280;45224;50.904;6.038;2023-01-28T04:36:48;101006.75;;;1.19;95.36
59419;BME280;45224;50.904;6.038;2023-01-28T04:38:30;101006.66;;;1.03;95.01
59419;BME280;45224;50.904;6.038;2023-01-28T04:40:22;101018.41;;;0.86;94.85
59419;BME280;45224;50.904;6.038;2023-01-28T04:42:07;101011.19;;;0.94;95.00
59419;BME280;45224;50.904;6.038;2023-01-28T04:43:57;101013.75;;;0.94;94.63
59419;BME280;45224;50.904;6.038;2023-01-28T04:45:37;101020.34;;;1.05;94.65
59419;BME280;45224;50.904;6.038;2023-01-28T04:47:37;101019.66;;;1.07;94.57
59419;BME280;45224;50.904;6.038;2023-01-28T04:49:29;101026.34;;;1.05;95.00
59419;BME280;45224;50.904;6.038;2023-01-28T04:51:35;101024.88;;;0.81;94.94
59419;BME280;45224;50.904;6.038;2023-01-28T04:53:30;101029.84;;;0.93;95.20
59419;BME280;45224;50.904;6.038;2023-01-28T04:55:02;101024.84;;;0.94;94.04
59419;BME280;45224;50.904;6.038;2023-01-28T04:56:33;101026.84;;;0.85;94.12
59419;BME280;45224;50.904;6.038;2023-01-28T04:58:04;101017.00;;;0.76;95.00
59419;BME280;45224;50.904;6.038;2023-01-28T04:59:37;101019.66;;;0.93;94.12
59419;BME280;45224;50.904;6.038;2023-01-28T05:01:07;101019.78;;;0.81;94.19
59419;BME280;45224;50.904;6.038;2023-01-28T05:02:38;101019.47;;;0.89;94.16
59419;BME280;45224;50.904;6.038;2023-01-28T05:04:08;101016.28;;;0.79;93.32
59419;BME280;45224;50.904;6.038;2023-01-28T05:05:42;101020.81;;;0.69;93.53
59419;BME280;45224;50.904;6.038;2023-01-28T05:07:22;101014.75;;;0.52;94.06
59419;BME280;45224;50.904;6.038;2023-01-28T05:08:53;101014.16;;;0.57;94.87
59419;BME280;45224;50.904;6.038;2023-01-28T05:10:25;101024.34;;;0.57;94.28
59419;BME280;45224;50.904;6.038;2023-01-28T05:11:57;101014.19;;;0.43;94.51
59419;BME280;45224;50.904;6.038;2023-01-28T05:13:28;101023.97;;;0.50;94.58
59419;BME280;45224;50.904;6.038;2023-01-28T05:14:59;101017.25;;;0.38;94.74
59419;BME280;45224;50.904;6.038;2023-01-28T05:16:29;101020.28;;;0.32;95.45
59419;BME280;45224;50.904;6.038;2023-01-28T05:18:01;101019.25;;;0.43;95.34
59419;BME280;45224;50.904;6.038;2023-01-28T05:19:37;101026.44;;;0.35;95.53
59419;BME280;45224;50.904;6.038;2023-01-28T05:21:13;101032.75;;;0.56;95.80
59419;BME280;45224;50.904;6.038;2023-01-28T05:22:44;101015.88;;;0.58;95.11
59419;BME280;45224;50.904;6.038;2023-01-28T05:24:26;101017.56;;;0.57;95.32
59419;BME280;45224;50.904;6.038;2023-01-28T05:25:57;101022.94;;;0.62;94.94
59419;BME280;45224;50.904;6.038;2023-01-28T05:27:27;101025.94;;;0.41;94.89
59419;BME280;45224;50.904;6.038;2023-01-28T05:29:03;101018.50;;;0.44;94.99
59419;BME280;45224;50.904;6.038;2023-01-28T05:30:33;101025.50;;;0.48;95.26
59419;BME280;45224;50.904;6.038;2023-01-28T05:32:04;101022.75;;;0.59;94.84
59419;BME280;45224;50.904;6.038;2023-01-28T05:33:35;101023.13;;;0.65;94.81
59419;BME280;45224;50.904;6.038;2023-01-28T05:35:08;101026.09;;;0.72;94.51
59419;BME280;45224;50.904;6.038;2023-01-28T05:36:39;101024.53;;;0.75;94.53
59419;BME280;45224;50.904;6.038;2023-01-28T05:38:25;101026.94;;;0.86;94.48
59419;BME280;45224;50.904;6.038;2023-01-28T05:39:56;101029.03;;;0.94;93.80
59419;BME280;45224;50.904;6.038;2023-01-28T05:41:26;101025.84;;;0.68;93.00
59419;BME280;45224;50.904;6.038;2023-01-28T05:43:03;101032.66;;;0.54;92.68
59419;BME280;45224;50.904;6.038;2023-01-28T05:44:48;101028.66;;;0.44;93.24
59419;BME280;45224;50.904;6.038;2023-01-28T05:46:22;101029.41;;;0.57;93.23
59419;BME280;45224;50.904;6.038;2023-01-28T05:48:06;101029.22;;;0.53;92.99
59419;BME280;45224;50.904;6.038;2023-01-28T05:50:04;101031.53;;;0.64;93.23
59419;BME280;45224;50.904;6.038;2023-01-28T05:51:47;101036.25;;;0.58;92.50
59419;BME280;45224;50.904;6.038;2023-01-28T05:53:22;101039.16;;;0.64;92.02
59419;BME280;45224;50.904;6.038;2023-01-28T05:54:54;101042.91;;;0.56;92.47
59419;BME280;45224;50.904;6.038;2023-01-28T05:56:25;101036.03;;;0.68;92.48
59419;BME280;45224;50.904;6.038;2023-01-28T05:57:56;101040.16;;;0.81;92.16
59419;BME280;45224;50.904;6.038;2023-01-28T05:59:29;101045.34;;;0.82;91.41
59419;BME280;45224;50.904;6.038;2023-01-28T06:01:01;101048.69;;;0.81;91.86
59419;BME280;45224;50.904;6.038;2023-01-28T06:02:41;101041.19;;;0.69;91.43
59419;BME280;45224;50.904;6.038;2023-01-28T06:04:13;101048.91;;;0.71;91.74
59419;BME280;45224;50.904;6.038;2023-01-28T06:05:43;101050.31;;;0.66;91.57
59419;BME280;45224;50.904;6.038;2023-01-28T06:07:14;101049.25;;;0.62;91.37
59419;BME280;45224;50.904;6.038;2023-01-28T06:08:50;101056.22;;;0.65;91.91
59419;BME280;45224;50.904;6.038;2023-01-28T06:10:26;101059.19;;;0.72;91.60
59419;BME280;45224;50.904;6.038;2023-01-28T06:11:57;101058.22;;;0.70;91.15
59419;BME280;45224;50.904;6.038;2023-01-28T06:13:29;101059.09;;;0.71;91.45
59419;BME280;45224;50.904;6.038;2023-01-28T06:15:13;101061.97;;;0.62;91.74
59419;BME280;45224;50.904;6.038;2023-01-28T06:17:03;101057.34;;;0.70;91.61
59419;BME280;45224;50.904;6.038;2023-01-28T06:18:45;101060.63;;;0.82;91.28
59419;BME280;45224;50.904;6.038;2023-01-28T06:20:15;101061.00;;;0.88;91.19
59419;BME280;45224;50.904;6.038;2023-01-28T06:21:50;101051.25;;;0.96;91.03
59419;BME280;45224;50.904;6.038;2023-01-28T06:23:22;101055.03;;;1.03;90.75
59419;BME280;45224;50.904;6.038;2023-01-28T06:24:52;101042.38;;;0.89;90.11
59419;BME280;45224;50.904;6.038;2023-01-28T06:26:23;101040.03;;;0.93;89.85
59419;BME280;45224;50.904;6.038;2023-01-28T06:27:54;101050.09;;;0.76;89.84
59419;BME280;45224;50.904;6.038;2023-01-28T06:29:25;101044.34;;;0.65;89.79
59419;BME280;45224;50.904;6.038;2023-01-28T06:30:55;101058.03;;;0.67;90.22
59419;BME280;45224;50.904;6.038;2023-01-28T06:32:26;101051.31;;;0.68;90.33
59419;BME280;45224;50.904;6.038;2023-01-28T06:33:57;101055.97;;;0.75;89.72
59419;BME280;45224;50.904;6.038;2023-01-28T06:35:28;101057.09;;;0.80;89.96
59419;BME280;45224;50.904;6.038;2023-01-28T06:36:58;101051.06;;;0.78;89.54
59419;BME280;45224;50.904;6.038;2023-01-28T06:38:29;101063.72;;;0.91;89.96
59419;BME280;45224;50.904;6.038;2023-01-28T06:40:00;101051.00;;;0.91;89.38
59419;BME280;45224;50.904;6.038;2023-01-28T06:41:30;101055.50;;;0.96;89.14
59419;BME280;45224;50.904;6.038;2023-01-28T06:43:01;101058.03;;;0.96;89.04
59419;BME280;45224;50.904;6.038;2023-01-28T06:44:31;101060.13;;;1.03;88.74
59419;BME280;45224;50.904;6.038;2023-01-28T06:46:02;101060.56;;;0.96;87.77
59419;BME280;45224;50.904;6.038;2023-01-28T06:47:32;101061.16;;;0.91;86.80
59419;BME280;45224;50.904;6.038;2023-01-28T06:49:03;101067.53;;;0.70;87.04
59419;BME280;45224;50.904;6.038;2023-01-28T06:50:34;101062.44;;;0.70;87.99
59419;BME280;45224;50.904;6.038;2023-01-28T06:52:04;101071.25;;;0.75;87.82
59419;BME280;45224;50.904;6.038;2023-01-28T06:53:35;101069.44;;;0.87;87.96
59419;BME280;45224;50.904;6.038;2023-01-28T06:55:05;101066.44;;;0.95;87.48
59419;BME280;45224;50.904;6.038;2023-01-28T06:56:36;101064.59;;;0.92;88.07
59419;BME280;45224;50.904;6.038;2023-01-28T06:58:06;101063.53;;;0.88;87.56
59419;BME280;45224;50.904;6.038;2023-01-28T06:59:37;101068.31;;;0.97;87.81
59419;BME280;45224;50.904;6.038;2023-01-28T07:01:07;101074.28;;;0.98;87.74
59419;BME280;45224;50.904;6.038;2023-01-28T07:02:38;101080.19;;;0.68;88.25
59419;BME280;45224;50.904;6.038;2023-01-28T07:04:08;101071.59;;;0.53;87.86
59419;BME280;45224;50.904;6.038;2023-01-28T07:05:39;101074.00;;;0.36;86.09
59419;BME280;45224;50.904;6.038;2023-01-28T07:07:09;101060.50;;;0.24;86.76
59419;BME280;45224;50.904;6.038;2023-01-28T07:08:40;101066.56;;;0.40;85.82
59419;BME280;45224;50.904;6.038;2023-01-28T07:10:10;101069.75;;;0.50;85.81
59419;BME280;45224;50.904;6.038;2023-01-28T07:11:41;101075.56;;;0.63;86.24
59419;BME280;45224;50.904;6.038;2023-01-28T07:13:11;101077.13;;;0.46;86.60
59419;BME280;45224;50.904;6.038;2023-01-28T07:14:42;101071.31;;;0.48;87.65
59419;BME280;45224;50.904;6.038;2023-01-28T07:16:12;101068.72;;;0.33;86.60
59419;BME280;45224;50.904;6.038;2023-01-28T07:17:43;101074.28;;;0.41;85.42
59419;BME280;45224;50.904;6.038;2023-01-28T07:19:14;101078.41;;;0.26;83.85
59419;BME280;45224;50.904;6.038;2023-01-28T07:20:44;101072.38;;;0.10;82.38
59419;BME280;45224;50.904;6.038;2023-01-28T07:22:15;101076.69;;;0.11;82.14
59419;BME280;45224;50.904;6.038;2023-01-28T07:23:45;101071.41;;;-0.05;83.23
59419;BME280;45224;50.904;6.038;2023-01-28T07:25:16;101083.34;;;-0.04;82.93
59419;BME280;45224;50.904;6.038;2023-01-28T07:26:46;101076.09;;;-0.25;82.89
59419;BME280;45224;50.904;6.038;2023-01-28T07:28:17;101085.59;;;-0.09;83.35
59419;BME280;45224;50.904;6.038;2023-01-28T07:29:50;101085.03;;;-0.05;83.33
59419;BME280;45224;50.904;6.038;2023-01-28T07:31:21;101076.31;;;0.05;83.51
59419;BME280;45224;50.904;6.038;2023-01-28T07:32:55;101081.78;;;-0.02;82.80
59419;BME280;45224;50.904;6.038;2023-01-28T07:34:26;101083.63;;;0.14;81.81
59419;BME280;45224;50.904;6.038;2023-01-28T07:35:57;101076.47;;;0.22;81.96
59419;BME280;45224;50.904;6.038;2023-01-28T07:37:27;101085.47;;;0.30;81.74
59419;BME280;45224;50.904;6.038;2023-01-28T07:38:58;101084.25;;;0.38;82.17
59419;BME280;45224;50.904;6.038;2023-01-28T07:40:28;101081.69;;;0.51;80.84
59419;BME280;45224;50.904;6.038;2023-01-28T07:41:59;101082.78;;;0.55;80.14
59419;BME280;45224;50.904;6.038;2023-01-28T07:43:40;101082.59;;;0.52;80.60
59419;BME280;45224;50.904;6.038;2023-01-28T07:45:10;101077.59;;;0.53;80.01
59419;BME280;45224;50.904;6.038;2023-01-28T07:46:41;101079.75;;;0.47;79.80
59419;BME280;45224;50.904;6.038;2023-01-28T07:48:12;101073.69;;;0.45;80.56
59419;BME280;45224;50.904;6.038;2023-01-28T07:49:43;101074.28;;;0.41;80.07
59419;BME280;45224;50.904;6.038;2023-01-28T07:51:13;101078.69;;;0.44;80.36
59419;BME280;45224;50.904;6.038;2023-01-28T07:52:44;101079.75;;;0.47;79.42
59419;BME280;45224;50.904;6.038;2023-01-28T07:54:15;101078.78;;;0.32;79.79
59419;BME280;45224;50.904;6.038;2023-01-28T07:55:46;101077.34;;;0.22;79.56
59419;BME280;45224;50.904;6.038;2023-01-28T07:57:16;101073.25;;;0.11;79.89
59419;BME280;45224;50.904;6.038;2023-01-28T07:58:52;101077.66;;;0.13;79.90
59419;BME280;45224;50.904;6.038;2023-01-28T08:00:24;101076.13;;;0.02;79.50
59419;BME280;45224;50.904;6.038;2023-01-28T08:01:55;101071.63;;;0.11;79.65
59419;BME280;45224;50.904;6.038;2023-01-28T08:03:26;101094.31;;;0.08;79.93
59419;BME280;45224;50.904;6.038;2023-01-28T08:04:57;101085.06;;;0.24;79.80
59419;BME280;45224;50.904;6.038;2023-01-28T08:06:29;101089.97;;;0.21;79.69
59419;BME280;45224;50.904;6.038;2023-01-28T08:07:59;101094.31;;;0.08;81.08
59419;BME280;45224;50.904;6.038;2023-01-28T08:09:30;101095.66;;;0.16;80.60
59419;BME280;45224;50.904;6.038;2023-01-28T08:11:09;101099.06;;;0.17;80.41
59419;BME280;45224;50.904;6.038;2023-01-28T08:12:56;101096.63;;;0.18;80.54
59419;BME280;45224;50.904;6.038;2023-01-28T08:14:29;101114.03;;;0.12;79.99
59419;BME280;45224;50.904;6.038;2023-01-28T08:16:00;101099.75;;;0.14;81.17
59419;BME280;45224;50.904;6.038;2023-01-28T08:17:31;101115.78;;;0.27;80.15
59419;BME280;45224;50.904;6.038;2023-01-28T08:19:02;101118.53;;;0.03;80.87
59419;BME280;45224;50.904;6.038;2023-01-28T08:20:33;101119.91;;;-0.02;80.44
59419;BME280;45224;50.904;6.038;2023-01-28T08:22:03;101118.63;;;0.05;80.69
59419;BME280;45224;50.904;6.038;2023-01-28T08:23:33;101114.66;;;0.08;81.01
59419;BME280;45224;50.904;6.038;2023-01-28T08:25:04;101120.50;;;0.21;81.04
59419;BME280;45224;50.904;6.038;2023-01-28T08:26:35;101125.19;;;0.01;80.78
59419;BME280;45224;50.904;6.038;2023-01-28T08:28:06;101119.03;;;0.11;81.28
59419;BME280;45224;50.904;6.038;2023-01-28T08:29:37;101125.00;;;0.25;81.43
59419;BME280;45224;50.904;6.038;2023-01-28T08:31:07;101140.63;;;0.17;81.05
59419;BME280;45224;50.904;6.038;2023-01-28T08:32:38;101129.13;;;0.23;81.29
59419;BME280;45224;50.904;6.038;2023-01-28T08:34:08;101122.53;;;0.13;80.68
59419;BME280;45224;50.904;6.038;2023-01-28T08:35:39;101113.84;;;0.23;80.40
59419;BME280;45224;50.904;6.038;2023-01-28T08:37:10;101127.63;;;0.13;81.20